Terminal Aerodrome Forecast
Issued by NWS

Home | Current Version | Previous Version | Text Only | Print | Product List | Glossary On
Versions: 1 2 3 4 5 6 7 8 9 10 11 12 13 14 15
142
FTUS45 KTFX 270536
TAFGTF
TAF
KGTF 270536Z 2706/2806 23012KT P6SM SKC
     FM271800 23014G26KT P6SM FEW090
     FM280500 01009KT P6SM SCT090=

USA.gov is the U.S. government's official web portal to all federal, state and local government web resources and services.